Detall de PIREP

Printer-friendly versionPDF version

[2010/10/16 17:18:00]
Flight IATA:CT3233
Pilot Number:042
Company ICAO:CAT
Aircraft Type:B744/E
PAX:200
Departing Airport: LEMD
Destination Airport: LEPA
Alternate Airport:LEBL
Online: VATSIM
Route:NANDO UW107 CLS UN733 GATOS
Flight Level:FL300
No Slew and time accel
No pause
Crash detect
Detect pilot in Cockpit between each 30 and 45 minutes
17:18 Zero fuel Weight: 466689 Lbs, Fuel Weight: 127542 Lbs
17:18 VATSIM:LEMD 161700Z VRB02KT CAVOK 18/02 Q1012 NOSIG
17:18 VATSIM:LEPA 161700Z 31006KT 240V360 9999 FEW023 18/12 Q1010 NOSIG
17:18 VOICE CATALONIAN
17:44 Parking Brakes off
17:54 Take-off
17:54 Take off Weight: 696877 Lbs
17:54 Wind: 004 @ 002 Knots Heading: 000
17:54 POS N40 30 30 W003 34 28
17:54 Gear Up: 177 Knots
17:54 Flaps:4 at 177 Knots
17:54 Flaps:3 at 179 Knots
17:55 Flaps:2 at 200 Knots
17:55 Flaps:1 at 208 Knots
17:55 Flaps:0 at 228 Knots
17:55 Flaps:1 at 229 Knots
17:56 Flaps:0 at 244 Knots
18:09 Wind:284@015 Knots Heading: 129 Ground Speed: 495 Knots Altitude 29297 ft
18:09 TOC
18:09 Fuel Weight: 112682 Lb
18:24 Wind:287@027 Knots Heading: 089 Ground Speed: 507 Knots Altitude 29934 ft
18:31 TOD
18:31 Fuel Weight: 102967 Lb
18:39 Wind:288@017 Knots Heading: 053 Ground Speed: 340 Knots Altitude 13323 ft
18:40 Flaps:1 at 219 Knots
18:40 Flaps:2 at 212 Knots
18:40 Flaps:3 at 204 Knots
18:47 Flaps:4 at 180 Knots
18:48 Gear Down: 169 Knots
18:49 Flaps:5 at 152 Knots
18:52 TouchDown:Rate -146 ft/min Speed: 147 Knots
18:52 VATSIM:LEPA 161830Z 33003KT 290V050 9999 FEW023 16/12 Q1011 NOSIG
18:52 Land
18:52 Wind:222@003 Knots
18:52 Heading: 240
18:52 Flight Duration: 00:58
18:52 Landing Weight: 667723 Lbs
18:52 POS N39 32 55 E002 44 50
19:00 Parking brakes on
19:00 Block to Block Duration: 01:16
19:00 Final Fuel: 95154 Lbls
19:00 Spent Fuel: 32387 Lbls
19:00 Flight Length: 355 NM
19:00 TOD Land Length: 63 NM

Exportar CSV

Powered by Drupal - Modified by Danger4k